Stove Pipe Wells, California
Current Conditions -  °F | °C
As of 5:56 AM on Thursday 23 Oct 2014 (Local Time) from KNID Reporting Station
Clear Clear  
Wind Chill: 47°   Ceiling: Unl
Heat Index: 47°   Visibility: 10mi
Dew Point: 22°   Wind: 3mph
Humidity: 37%   Direction: 40°NE
Pressure: 30.04"   Gusts: NA
Location:  36.3785°N, 117.161°W
Report Text: KNID 231256Z 04003KT 10SM CLR 08/M06 A3004 RMK AO2 SLP164 T00831056 $
Loading
Personal Weather Stations






























Interactive Weather Map
Tropical Storm Tracking
New forecast layout! Learn more

10-Day Weather Forecast

Advertisements
Track Severe Weather on mobile